sensor_id;sensor_type;location;lat;lon;timestamp;pressure;altitude;pressure_sealevel;temperature;humidity
21779;BME280;11050;52.222;20.916;2023-04-19T00:02:03;100497.25;;;11.65;96.98
21779;BME280;11050;52.222;20.916;2023-04-19T00:04:28;100487.84;;;11.61;97.45
21779;BME280;11050;52.222;20.916;2023-04-19T00:06:54;100491.63;;;11.55;97.75
21779;BME280;11050;52.222;20.916;2023-04-19T00:09:21;100485.22;;;11.49;98.42
21779;BME280;11050;52.222;20.916;2023-04-19T00:11:46;100488.56;;;11.51;98.52
21779;BME280;11050;52.222;20.916;2023-04-19T00:14:12;100478.06;;;11.48;98.86
21779;BME280;11050;52.222;20.916;2023-04-19T00:16:38;100494.31;;;11.50;97.86
21779;BME280;11050;52.222;20.916;2023-04-19T00:19:03;100480.47;;;11.44;98.09
21779;BME280;11050;52.222;20.916;2023-04-19T00:21:29;100482.09;;;11.40;98.57
21779;BME280;11050;52.222;20.916;2023-04-19T00:23:55;100481.25;;;11.40;98.40
21779;BME280;11050;52.222;20.916;2023-04-19T00:26:21;100480.16;;;11.41;98.09
21779;BME280;11050;52.222;20.916;2023-04-19T00:28:47;100472.69;;;11.36;97.50
21779;BME280;11050;52.222;20.916;2023-04-19T00:31:12;100480.84;;;11.31;98.36
21779;BME280;11050;52.222;20.916;2023-04-19T00:33:38;100484.53;;;11.20;99.72
21779;BME280;11050;52.222;20.916;2023-04-19T00:36:04;100478.72;;;11.17;99.78
21779;BME280;11050;52.222;20.916;2023-04-19T00:38:29;100471.47;;;11.11;99.92
21779;BME280;11050;52.222;20.916;2023-04-19T00:40:55;100474.59;;;10.98;100.00
21779;BME280;11050;52.222;20.916;2023-04-19T00:43:21;100467.53;;;10.85;100.00
21779;BME280;11050;52.222;20.916;2023-04-19T00:45:47;100464.34;;;10.77;100.00
21779;BME280;11050;52.222;20.916;2023-04-19T00:48:14;100466.38;;;10.65;100.00
21779;BME280;11050;52.222;20.916;2023-04-19T00:50:44;100461.03;;;10.58;100.00
21779;BME280;11050;52.222;20.916;2023-04-19T00:53:11;100456.06;;;10.55;100.00
21779;BME280;11050;52.222;20.916;2023-04-19T00:55:40;100452.66;;;10.48;100.00
21779;BME280;11050;52.222;20.916;2023-04-19T00:58:08;100445.41;;;10.42;100.00
21779;BME280;11050;52.222;20.916;2023-04-19T01:00:35;100439.66;;;10.43;100.00
21779;BME280;11050;52.222;20.916;2023-04-19T01:03:01;100438.81;;;10.43;100.00
21779;BME280;11050;52.222;20.916;2023-04-19T01:05:27;100432.25;;;10.44;100.00
21779;BME280;11050;52.222;20.916;2023-04-19T01:07:52;100435.56;;;10.46;100.00
21779;BME280;11050;52.222;20.916;2023-04-19T01:10:18;100426.91;;;10.37;100.00
21779;BME280;11050;52.222;20.916;2023-04-19T01:12:43;100424.59;;;10.29;100.00
21779;BME280;11050;52.222;20.916;2023-04-19T01:15:09;100425.16;;;10.31;100.00
21779;BME280;11050;52.222;20.916;2023-04-19T01:17:35;100425.59;;;10.23;100.00
21779;BME280;11050;52.222;20.916;2023-04-19T01:20:04;100426.91;;;10.21;100.00
21779;BME280;11050;52.222;20.916;2023-04-19T01:22:34;100422.66;;;10.13;100.00
21779;BME280;11050;52.222;20.916;2023-04-19T01:25:02;100418.47;;;10.11;100.00
21779;BME280;11050;52.222;20.916;2023-04-19T01:27:29;100411.22;;;10.05;100.00
21779;BME280;11050;52.222;20.916;2023-04-19T01:29:55;100408.81;;;10.08;100.00
21779;BME280;11050;52.222;20.916;2023-04-19T01:32:21;100410.38;;;10.04;100.00
21779;BME280;11050;52.222;20.916;2023-04-19T01:34:47;100404.06;;;10.04;100.00
21779;BME280;11050;52.222;20.916;2023-04-19T01:37:13;100404.56;;;10.01;100.00
21779;BME280;11050;52.222;20.916;2023-04-19T01:39:39;100408.94;;;10.02;100.00
21779;BME280;11050;52.222;20.916;2023-04-19T01:42:04;100401.22;;;9.99;100.00
21779;BME280;11050;52.222;20.916;2023-04-19T01:44:30;100402.88;;;10.00;100.00
21779;BME280;11050;52.222;20.916;2023-04-19T01:46:56;100398.72;;;9.97;100.00
21779;BME280;11050;52.222;20.916;2023-04-19T01:49:21;100393.25;;;9.97;100.00
21779;BME280;11050;52.222;20.916;2023-04-19T01:51:47;100401.47;;;9.97;100.00
21779;BME280;11050;52.222;20.916;2023-04-19T01:54:13;100400.38;;;9.98;100.00
21779;BME280;11050;52.222;20.916;2023-04-19T01:56:38;100407.78;;;9.98;100.00
21779;BME280;11050;52.222;20.916;2023-04-19T01:59:04;100403.13;;;9.98;100.00
21779;BME280;11050;52.222;20.916;2023-04-19T02:01:30;100405.38;;;10.01;100.00
21779;BME280;11050;52.222;20.916;2023-04-19T02:03:56;100400.38;;;9.98;100.00
21779;BME280;11050;52.222;20.916;2023-04-19T02:06:21;100389.66;;;9.97;100.00
21779;BME280;11050;52.222;20.916;2023-04-19T02:08:47;100392.22;;;10.03;100.00
21779;BME280;11050;52.222;20.916;2023-04-19T02:11:13;100396.91;;;10.03;100.00
21779;BME280;11050;52.222;20.916;2023-04-19T02:13:39;100394.97;;;10.03;100.00
21779;BME280;11050;52.222;20.916;2023-04-19T02:16:06;100389.16;;;10.00;100.00
21779;BME280;11050;52.222;20.916;2023-04-19T02:18:32;100394.06;;;9.98;100.00
21779;BME280;11050;52.222;20.916;2023-04-19T02:21:04;100393.00;;;9.99;100.00
21779;BME280;11050;52.222;20.916;2023-04-19T02:23:30;100389.91;;;9.95;100.00
21779;BME280;11050;52.222;20.916;2023-04-19T02:25:56;100386.91;;;9.97;100.00
21779;BME280;11050;52.222;20.916;2023-04-19T02:28:21;100389.41;;;9.98;100.00
21779;BME280;11050;52.222;20.916;2023-04-19T02:30:47;100384.75;;;9.99;100.00
21779;BME280;11050;52.222;20.916;2023-04-19T02:33:14;100378.94;;;9.95;100.00
21779;BME280;11050;52.222;20.916;2023-04-19T02:35:40;100386.06;;;9.96;100.00
21779;BME280;11050;52.222;20.916;2023-04-19T02:38:05;100377.56;;;9.98;100.00
21779;BME280;11050;52.222;20.916;2023-04-19T02:40:31;100374.34;;;10.01;100.00
21779;BME280;11050;52.222;20.916;2023-04-19T02:42:57;100376.19;;;9.95;100.00
21779;BME280;11050;52.222;20.916;2023-04-19T02:45:22;100370.91;;;9.94;100.00
21779;BME280;11050;52.222;20.916;2023-04-19T02:47:48;100365.69;;;9.92;100.00
21779;BME280;11050;52.222;20.916;2023-04-19T02:50:16;100367.59;;;9.92;100.00
21779;BME280;11050;52.222;20.916;2023-04-19T02:52:41;100360.19;;;9.92;100.00
21779;BME280;11050;52.222;20.916;2023-04-19T02:55:07;100360.53;;;9.96;100.00
21779;BME280;11050;52.222;20.916;2023-04-19T02:57:33;100347.63;;;9.96;100.00
21779;BME280;11050;52.222;20.916;2023-04-19T02:59:59;100343.25;;;9.95;100.00
21779;BME280;11050;52.222;20.916;2023-04-19T03:02:25;100348.97;;;9.94;100.00
21779;BME280;11050;52.222;20.916;2023-04-19T03:04:51;100345.28;;;9.88;100.00
21779;BME280;11050;52.222;20.916;2023-04-19T03:07:17;100346.63;;;9.86;100.00
21779;BME280;11050;52.222;20.916;2023-04-19T03:09:43;100337.50;;;9.80;100.00
21779;BME280;11050;52.222;20.916;2023-04-19T03:12:09;100332.47;;;9.77;100.00
21779;BME280;11050;52.222;20.916;2023-04-19T03:14:35;100335.72;;;9.74;100.00
21779;BME280;11050;52.222;20.916;2023-04-19T03:17:01;100340.88;;;9.71;100.00
21779;BME280;11050;52.222;20.916;2023-04-19T03:19:28;100336.22;;;9.71;100.00
21779;BME280;11050;52.222;20.916;2023-04-19T03:21:53;100332.16;;;9.74;100.00
21779;BME280;11050;52.222;20.916;2023-04-19T03:24:26;100325.59;;;9.75;100.00
21779;BME280;11050;52.222;20.916;2023-04-19T03:26:51;100327.75;;;9.73;100.00
21779;BME280;11050;52.222;20.916;2023-04-19T03:29:17;100328.81;;;9.72;100.00
21779;BME280;11050;52.222;20.916;2023-04-19T03:31:43;100325.22;;;9.71;100.00
21779;BME280;11050;52.222;20.916;2023-04-19T03:34:08;100323.59;;;9.70;100.00
21779;BME280;11050;52.222;20.916;2023-04-19T03:36:34;100321.34;;;9.67;100.00
21779;BME280;11050;52.222;20.916;2023-04-19T03:39:02;100317.16;;;9.65;100.00
21779;BME280;11050;52.222;20.916;2023-04-19T03:41:28;100313.00;;;9.62;100.00
21779;BME280;11050;52.222;20.916;2023-04-19T03:43:54;100316.59;;;9.63;100.00
21779;BME280;11050;52.222;20.916;2023-04-19T03:46:19;100307.19;;;9.58;100.00
21779;BME280;11050;52.222;20.916;2023-04-19T03:48:45;100304.19;;;9.60;100.00
21779;BME280;11050;52.222;20.916;2023-04-19T03:51:11;100304.69;;;9.57;100.00
21779;BME280;11050;52.222;20.916;2023-04-19T03:53:38;100303.50;;;9.53;100.00
21779;BME280;11050;52.222;20.916;2023-04-19T03:56:04;100301.03;;;9.51;100.00
21779;BME280;11050;52.222;20.916;2023-04-19T03:58:30;100294.94;;;9.49;100.00
21779;BME280;11050;52.222;20.916;2023-04-19T04:00:55;100294.94;;;9.49;100.00
21779;BME280;11050;52.222;20.916;2023-04-19T04:03:21;100297.69;;;9.49;100.00
21779;BME280;11050;52.222;20.916;2023-04-19T04:05:47;100297.69;;;9.49;100.00
21779;BME280;11050;52.222;20.916;2023-04-19T04:08:13;100293.06;;;9.50;100.00
21779;BME280;11050;52.222;20.916;2023-04-19T04:10:38;100294.13;;;9.49;100.00
21779;BME280;11050;52.222;20.916;2023-04-19T04:13:04;100290.31;;;9.50;100.00
21779;BME280;11050;52.222;20.916;2023-04-19T04:15:29;100288.38;;;9.50;100.00
21779;BME280;11050;52.222;20.916;2023-04-19T04:17:55;100291.38;;;9.49;100.00
21779;BME280;11050;52.222;20.916;2023-04-19T04:20:21;100289.94;;;9.46;100.00
21779;BME280;11050;52.222;20.916;2023-04-19T04:22:47;100289.38;;;9.44;100.00
21779;BME280;11050;52.222;20.916;2023-04-19T04:25:13;100274.72;;;9.39;100.00
21779;BME280;11050;52.222;20.916;2023-04-19T04:27:43;100286.88;;;9.43;100.00
21779;BME280;11050;52.222;20.916;2023-04-19T04:30:10;100275.56;;;9.39;100.00
21779;BME280;11050;52.222;20.916;2023-04-19T04:32:37;100285.22;;;9.42;100.00
21779;BME280;11050;52.222;20.916;2023-04-19T04:35:07;100291.53;;;9.42;100.00
21779;BME280;11050;52.222;20.916;2023-04-19T04:37:34;100284.13;;;9.43;100.00
21779;BME280;11050;52.222;20.916;2023-04-19T04:40:01;100281.03;;;9.39;100.00
21779;BME280;11050;52.222;20.916;2023-04-19T04:42:29;100292.84;;;9.40;100.00
21779;BME280;11050;52.222;20.916;2023-04-19T04:44:56;100285.22;;;9.42;100.00
21779;BME280;11050;52.222;20.916;2023-04-19T04:47:23;100282.72;;;9.40;100.00
21779;BME280;11050;52.222;20.916;2023-04-19T04:49:49;100280.72;;;9.36;100.00
21779;BME280;11050;52.222;20.916;2023-04-19T04:52:15;100291.94;;;9.34;100.00
21779;BME280;11050;52.222;20.916;2023-04-19T04:54:41;100287.88;;;9.37;100.00
21779;BME280;11050;52.222;20.916;2023-04-19T04:57:07;100281.22;;;9.33;100.00
21779;BME280;11050;52.222;20.916;2023-04-19T04:59:33;100280.38;;;9.32;100.00
21779;BME280;11050;52.222;20.916;2023-04-19T05:01:59;100283.38;;;9.31;100.00
21779;BME280;11050;52.222;20.916;2023-04-19T05:04:25;100277.78;;;9.26;100.00
21779;BME280;11050;52.222;20.916;2023-04-19T05:06:50;100278.28;;;9.23;100.00
21779;BME280;11050;52.222;20.916;2023-04-19T05:09:16;100271.38;;;9.20;100.00
21779;BME280;11050;52.222;20.916;2023-04-19T05:11:42;100270.03;;;9.23;100.00
21779;BME280;11050;52.222;20.916;2023-04-19T05:14:07;100265.06;;;9.20;100.00
21779;BME280;11050;52.222;20.916;2023-04-19T05:16:33;100264.69;;;9.16;100.00
21779;BME280;11050;52.222;20.916;2023-04-19T05:18:59;100264.94;;;9.15;100.00
21779;BME280;11050;52.222;20.916;2023-04-19T05:21:25;100271.28;;;9.15;100.00
21779;BME280;11050;52.222;20.916;2023-04-19T05:23:52;100269.47;;;9.21;100.00
21779;BME280;11050;52.222;20.916;2023-04-19T05:26:20;100275.28;;;9.24;100.00
21779;BME280;11050;52.222;20.916;2023-04-19T05:28:46;100268.22;;;9.28;100.00
21779;BME280;11050;52.222;20.916;2023-04-19T05:31:12;100266.66;;;9.32;100.00
21779;BME280;11050;52.222;20.916;2023-04-19T05:33:38;100269.75;;;9.36;100.00
21779;BME280;11050;52.222;20.916;2023-04-19T05:36:04;100266.75;;;9.37;100.00
21779;BME280;11050;52.222;20.916;2023-04-19T05:38:29;100266.84;;;9.42;100.00
21779;BME280;11050;52.222;20.916;2023-04-19T05:40:55;100261.84;;;9.39;100.00
21779;BME280;11050;52.222;20.916;2023-04-19T05:43:21;100262.69;;;9.40;100.00
21779;BME280;11050;52.222;20.916;2023-04-19T05:45:46;100264.69;;;9.44;100.00
21779;BME280;11050;52.222;20.916;2023-04-19T05:48:12;100260.59;;;9.47;100.00
21779;BME280;11050;52.222;20.916;2023-04-19T05:50:38;100265.84;;;9.48;100.00
21779;BME280;11050;52.222;20.916;2023-04-19T05:53:04;100264.00;;;9.54;100.00
21779;BME280;11050;52.222;20.916;2023-04-19T05:55:30;100265.44;;;9.56;100.00
21779;BME280;11050;52.222;20.916;2023-04-19T05:57:57;100254.72;;;9.55;100.00
21779;BME280;11050;52.222;20.916;2023-04-19T06:00:23;100260.94;;;9.50;100.00
21779;BME280;11050;52.222;20.916;2023-04-19T06:02:49;100255.22;;;9.52;100.00
21779;BME280;11050;52.222;20.916;2023-04-19T06:05:14;100252.13;;;9.48;100.00
21779;BME280;11050;52.222;20.916;2023-04-19T06:07:40;100253.56;;;9.51;100.00
21779;BME280;11050;52.222;20.916;2023-04-19T06:10:07;100251.53;;;9.46;100.00
21779;BME280;11050;52.222;20.916;2023-04-19T06:12:32;100246.63;;;9.48;100.00
21779;BME280;11050;52.222;20.916;2023-04-19T06:14:58;100241.16;;;9.48;100.00
21779;BME280;11050;52.222;20.916;2023-04-19T06:17:24;100240.81;;;9.45;100.00
21779;BME280;11050;52.222;20.916;2023-04-19T06:19:51;100232.84;;;9.43;100.00
21779;BME280;11050;52.222;20.916;2023-04-19T06:22:17;100232.00;;;9.43;100.00
21779;BME280;11050;52.222;20.916;2023-04-19T06:24:46;100233.94;;;9.42;100.00
21779;BME280;11050;52.222;20.916;2023-04-19T06:27:13;100235.84;;;9.42;100.00
21779;BME280;11050;52.222;20.916;2023-04-19T06:29:39;100236.19;;;9.45;100.00
21779;BME280;11050;52.222;20.916;2023-04-19T06:32:05;100236.84;;;9.52;100.00
21779;BME280;11050;52.222;20.916;2023-04-19T06:34:31;100244.09;;;9.58;100.00
21779;BME280;11050;52.222;20.916;2023-04-19T06:36:56;100235.25;;;9.56;100.00
21779;BME280;11050;52.222;20.916;2023-04-19T06:39:22;100234.34;;;9.51;100.00
21779;BME280;11050;52.222;20.916;2023-04-19T06:41:47;100244.47;;;9.50;100.00
21779;BME280;11050;52.222;20.916;2023-04-19T06:44:13;100238.25;;;9.55;100.00
21779;BME280;11050;52.222;20.916;2023-04-19T06:46:39;100239.09;;;9.55;100.00
21779;BME280;11050;52.222;20.916;2023-04-19T06:49:05;100241.66;;;9.62;100.00
21779;BME280;11050;52.222;20.916;2023-04-19T06:51:32;100247.47;;;9.66;100.00
21779;BME280;11050;52.222;20.916;2023-04-19T06:53:58;100247.59;;;9.71;100.00
21779;BME280;11050;52.222;20.916;2023-04-19T06:56:45;100247.41;;;9.77;100.00
21779;BME280;11050;52.222;20.916;2023-04-19T06:59:18;100246.47;;;9.88;100.00
21779;BME280;11050;52.222;20.916;2023-04-19T07:01:44;100246.13;;;10.01;100.00
21779;BME280;11050;52.222;20.916;2023-04-19T07:04:11;100252.47;;;10.18;100.00
21779;BME280;11050;52.222;20.916;2023-04-19T07:06:38;100253.47;;;10.29;100.00
21779;BME280;11050;52.222;20.916;2023-04-19T07:09:05;100252.78;;;10.38;100.00
21779;BME280;11050;52.222;20.916;2023-04-19T07:11:32;100251.75;;;10.44;100.00
21779;BME280;11050;52.222;20.916;2023-04-19T07:13:58;100251.03;;;10.54;100.00
21779;BME280;11050;52.222;20.916;2023-04-19T07:16:27;100243.50;;;10.66;100.00
21779;BME280;11050;52.222;20.916;2023-04-19T07:18:53;100251.50;;;10.89;100.00
21779;BME280;11050;52.222;20.916;2023-04-19T07:21:18;100250.25;;;11.02;100.00
21779;BME280;11050;52.222;20.916;2023-04-19T07:23:44;100246.16;;;11.04;100.00
21779;BME280;11050;52.222;20.916;2023-04-19T07:26:10;100249.81;;;11.10;100.00
21779;BME280;11050;52.222;20.916;2023-04-19T07:28:38;100239.63;;;11.10;100.00
21779;BME280;11050;52.222;20.916;2023-04-19T07:31:04;100240.59;;;10.99;100.00
21779;BME280;11050;52.222;20.916;2023-04-19T07:33:30;100245.56;;;10.97;100.00
21779;BME280;11050;52.222;20.916;2023-04-19T07:35:56;100248.84;;;10.99;100.00
21779;BME280;11050;52.222;20.916;2023-04-19T07:38:22;100244.72;;;10.97;100.00
21779;BME280;11050;52.222;20.916;2023-04-19T07:40:49;100246.34;;;10.98;100.00
21779;BME280;11050;52.222;20.916;2023-04-19T07:43:15;100242.00;;;11.02;100.00
21779;BME280;11050;52.222;20.916;2023-04-19T07:45:41;100247.81;;;11.05;100.00
21779;BME280;11050;52.222;20.916;2023-04-19T07:48:07;100243.47;;;11.09;100.00
21779;BME280;11050;52.222;20.916;2023-04-19T07:50:32;100242.63;;;11.09;100.00
21779;BME280;11050;52.222;20.916;2023-04-19T07:52:58;100247.88;;;11.10;100.00
21779;BME280;11050;52.222;20.916;2023-04-19T07:55:24;100245.94;;;11.11;100.00
21779;BME280;11050;52.222;20.916;2023-04-19T07:57:49;100249.81;;;11.10;100.00
21779;BME280;11050;52.222;20.916;2023-04-19T08:00:16;100248.47;;;11.12;100.00
21779;BME280;11050;52.222;20.916;2023-04-19T08:02:47;100249.84;;;11.15;100.00
21779;BME280;11050;52.222;20.916;2023-04-19T08:05:14;100249.84;;;11.15;100.00
21779;BME280;11050;52.222;20.916;2023-04-19T08:07:42;100254.50;;;11.14;100.00
21779;BME280;11050;52.222;20.916;2023-04-19T08:10:09;100252.59;;;11.15;100.00
21779;BME280;11050;52.222;20.916;2023-04-19T08:12:35;100258.09;;;11.15;100.00
21779;BME280;11050;52.222;20.916;2023-04-19T08:15:06;100254.59;;;11.19;100.00
21779;BME280;11050;52.222;20.916;2023-04-19T08:17:33;100253.28;;;11.27;100.00
21779;BME280;11050;52.222;20.916;2023-04-19T08:19:58;100245.66;;;11.34;100.00
21779;BME280;11050;52.222;20.916;2023-04-19T08:22:24;100253.13;;;11.38;100.00
21779;BME280;11050;52.222;20.916;2023-04-19T08:24:51;100256.81;;;11.49;100.00
21779;BME280;11050;52.222;20.916;2023-04-19T08:27:18;100256.03;;;11.54;100.00
21779;BME280;11050;52.222;20.916;2023-04-19T08:29:44;100246.19;;;11.63;100.00
21779;BME280;11050;52.222;20.916;2023-04-19T08:32:11;100249.63;;;11.75;100.00
21779;BME280;11050;52.222;20.916;2023-04-19T08:34:38;100249.44;;;11.86;100.00
21779;BME280;11050;52.222;20.916;2023-04-19T08:37:05;100250.28;;;11.87;100.00
21779;BME280;11050;52.222;20.916;2023-04-19T08:39:32;100259.69;;;11.96;100.00
21779;BME280;11050;52.222;20.916;2023-04-19T08:42:05;100247.16;;;12.10;100.00
21779;BME280;11050;52.222;20.916;2023-04-19T08:44:35;100257.72;;;12.28;100.00
21779;BME280;11050;52.222;20.916;2023-04-19T08:47:03;100248.47;;;12.49;100.00
21779;BME280;11050;52.222;20.916;2023-04-19T08:49:34;100253.88;;;12.81;100.00
21779;BME280;11050;52.222;20.916;2023-04-19T08:52:01;100259.16;;;12.97;100.00
21779;BME280;11050;52.222;20.916;2023-04-19T08:54:30;100259.16;;;12.97;100.00
21779;BME280;11050;52.222;20.916;2023-04-19T08:56:59;100261.97;;;13.02;100.00
21779;BME280;11050;52.222;20.916;2023-04-19T08:59:27;100252.88;;;13.07;100.00
21779;BME280;11050;52.222;20.916;2023-04-19T09:01:55;100260.97;;;13.23;100.00
21779;BME280;11050;52.222;20.916;2023-04-19T09:04:24;100264.03;;;13.52;100.00
21779;BME280;11050;52.222;20.916;2023-04-19T09:06:50;100263.22;;;13.77;100.00
21779;BME280;11050;52.222;20.916;2023-04-19T09:09:25;100266.00;;;13.87;98.73
21779;BME280;11050;52.222;20.916;2023-04-19T09:11:51;100267.38;;;13.94;97.95
21779;BME280;11050;52.222;20.916;2023-04-19T09:14:19;100264.59;;;13.99;97.24
21779;BME280;11050;52.222;20.916;2023-04-19T09:16:45;100268.47;;;13.98;97.47
21779;BME280;11050;52.222;20.916;2023-04-19T09:19:12;100270.97;;;14.00;98.01
21779;BME280;11050;52.222;20.916;2023-04-19T09:21:38;100278.13;;;14.01;98.06
21779;BME280;11050;52.222;20.916;2023-04-19T09:24:05;100283.69;;;14.06;98.27
21779;BME280;11050;52.222;20.916;2023-04-19T09:26:32;100273.72;;;14.05;96.79
21779;BME280;11050;52.222;20.916;2023-04-19T09:29:05;100275.13;;;14.02;95.95
21779;BME280;11050;52.222;20.916;2023-04-19T09:31:34;100281.44;;;14.18;95.71
21779;BME280;11050;52.222;20.916;2023-04-19T09:34:15;100282.84;;;14.31;93.73
21779;BME280;11050;52.222;20.916;2023-04-19T09:36:42;100276.19;;;14.32;92.81
21779;BME280;11050;52.222;20.916;2023-04-19T09:39:08;100273.72;;;14.40;91.48
21779;BME280;11050;52.222;20.916;2023-04-19T09:41:50;100275.38;;;14.36;90.11
21779;BME280;11050;52.222;20.916;2023-04-19T09:44:15;100283.66;;;14.31;90.47
21779;BME280;11050;52.222;20.916;2023-04-19T09:46:42;100277.28;;;14.25;91.47
21779;BME280;11050;52.222;20.916;2023-04-19T09:51:43;100281.72;;;14.11;90.94
21779;BME280;11050;52.222;20.916;2023-04-19T09:54:12;100277.31;;;14.15;91.25
21779;BME280;11050;52.222;20.916;2023-04-19T09:56:38;100275.91;;;14.23;91.63
21779;BME280;11050;52.222;20.916;2023-04-19T09:59:06;100286.69;;;14.40;90.16
21779;BME280;11050;52.222;20.916;2023-04-19T10:01:51;100279.50;;;14.39;89.82
21779;BME280;11050;52.222;20.916;2023-04-19T10:04:19;100291.41;;;14.39;89.83
21779;BME280;11050;52.222;20.916;2023-04-19T10:06:53;100286.16;;;14.27;89.60
21779;BME280;11050;52.222;20.916;2023-04-19T10:09:20;100286.44;;;14.11;89.79
21779;BME280;11050;52.222;20.916;2023-04-19T10:11:52;100292.50;;;13.98;90.56
21779;BME280;11050;52.222;20.916;2023-04-19T10:14:23;100290.84;;;13.92;91.25
21779;BME280;11050;52.222;20.916;2023-04-19T10:16:49;100275.09;;;13.92;92.03
21779;BME280;11050;52.222;20.916;2023-04-19T10:19:19;100279.53;;;13.98;91.87
21779;BME280;11050;52.222;20.916;2023-04-19T10:21:48;100273.16;;;13.98;91.51
21779;BME280;11050;52.222;20.916;2023-04-19T10:24:15;100281.19;;;13.99;91.16
21779;BME280;11050;52.222;20.916;2023-04-19T10:27:11;100277.88;;;13.92;90.42
21779;BME280;11050;52.222;20.916;2023-04-19T10:29:57;100282.56;;;13.87;90.96
21779;BME280;11050;52.222;20.916;2023-04-19T10:32:37;100290.31;;;13.80;91.25
21779;BME280;11050;52.222;20.916;2023-04-19T10:35:17;100295.81;;;13.75;92.76
21779;BME280;11050;52.222;20.916;2023-04-19T10:43:17;100295.53;;;13.61;94.47
21779;BME280;11050;52.222;20.916;2023-04-19T10:45:44;100295.78;;;13.55;94.48
21779;BME280;11050;52.222;20.916;2023-04-19T10:51:18;100291.06;;;13.40;95.24
21779;BME280;11050;52.222;20.916;2023-04-19T10:53:51;100289.13;;;13.36;95.73
21779;BME280;11050;52.222;20.916;2023-04-19T11:01:40;100294.63;;;13.41;96.81
21779;BME280;11050;52.222;20.916;2023-04-19T11:04:57;100291.91;;;13.51;96.51
21779;BME280;11050;52.222;20.916;2023-04-19T11:07:09;100296.91;;;13.54;96.96
21779;BME280;11050;52.222;20.916;2023-04-19T11:09:38;100290.00;;;13.51;95.88
21779;BME280;11050;52.222;20.916;2023-04-19T11:12:10;100296.59;;;13.50;96.20
21779;BME280;11050;52.222;20.916;2023-04-19T11:14:47;100304.63;;;13.57;94.10
21779;BME280;11050;52.222;20.916;2023-04-19T11:20:00;100305.75;;;13.71;93.80
21779;BME280;11050;52.222;20.916;2023-04-19T11:22:36;100294.44;;;13.77;93.54
21779;BME280;11050;52.222;20.916;2023-04-19T11:25:19;100299.69;;;13.94;94.21
21779;BME280;11050;52.222;20.916;2023-04-19T11:27:49;100303.28;;;14.09;92.48
21779;BME280;11050;52.222;20.916;2023-04-19T11:30:28;100301.34;;;14.10;90.90
21779;BME280;11050;52.222;20.916;2023-04-19T11:32:56;100300.25;;;14.21;91.30
21779;BME280;11050;52.222;20.916;2023-04-19T11:35:27;100297.22;;;14.38;90.65
21779;BME280;11050;52.222;20.916;2023-04-19T11:37:57;100298.03;;;14.43;88.81
21779;BME280;11050;52.222;20.916;2023-04-19T11:40:25;100305.78;;;14.41;89.09
21779;BME280;11050;52.222;20.916;2023-04-19T11:42:56;100296.66;;;14.46;89.03
21779;BME280;11050;52.222;20.916;2023-04-19T11:45:36;100306.31;;;14.48;88.58
21779;BME280;11050;52.222;20.916;2023-04-19T11:48:12;100307.13;;;14.54;87.44
21779;BME280;11050;52.222;20.916;2023-04-19T11:50:42;100306.28;;;14.68;86.20
21779;BME280;11050;52.222;20.916;2023-04-19T11:53:19;100308.91;;;15.03;87.54
21779;BME280;11050;52.222;20.916;2023-04-19T11:56:05;100302.97;;;15.30;84.82
21779;BME280;11050;52.222;20.916;2023-04-19T11:58:45;100301.81;;;15.46;80.90
21779;BME280;11050;52.222;20.916;2023-04-19T12:01:18;100298.47;;;15.49;80.95
21779;BME280;11050;52.222;20.916;2023-04-19T12:03:53;100299.66;;;15.77;81.15
21779;BME280;11050;52.222;20.916;2023-04-19T12:06:25;100295.88;;;16.01;79.32
21779;BME280;11050;52.222;20.916;2023-04-19T12:08:53;100296.88;;;16.44;80.30
21779;BME280;11050;52.222;20.916;2023-04-19T12:11:40;100297.47;;;16.93;77.26
21779;BME280;11050;52.222;20.916;2023-04-19T12:14:18;100306.19;;;17.29;72.20
21779;BME280;11050;52.222;20.916;2023-04-19T12:17:08;100299.97;;;17.37;68.38
21779;BME280;11050;52.222;20.916;2023-04-19T12:19:44;100311.47;;;17.31;68.58
21779;BME280;11050;52.222;20.916;2023-04-19T12:22:16;100311.88;;;17.19;68.62
21779;BME280;11050;52.222;20.916;2023-04-19T12:24:44;100306.81;;;17.02;69.86
21779;BME280;11050;52.222;20.916;2023-04-19T12:27:10;100305.34;;;16.86;68.89
21779;BME280;11050;52.222;20.916;2023-04-19T12:29:37;100309.34;;;16.75;68.95
21779;BME280;11050;52.222;20.916;2023-04-19T12:32:04;100315.00;;;16.65;70.73
21779;BME280;11050;52.222;20.916;2023-04-19T12:34:30;100311.81;;;16.53;70.98
21779;BME280;11050;52.222;20.916;2023-04-19T12:36:56;100320.38;;;16.57;72.23
21779;BME280;11050;52.222;20.916;2023-04-19T12:39:22;100315.06;;;16.60;71.20
21779;BME280;11050;52.222;20.916;2023-04-19T12:41:49;100327.78;;;16.61;72.05
21779;BME280;11050;52.222;20.916;2023-04-19T12:44:15;100321.78;;;16.54;72.97
21779;BME280;11050;52.222;20.916;2023-04-19T12:46:41;100322.72;;;16.40;73.13
21779;BME280;11050;52.222;20.916;2023-04-19T12:49:06;100323.53;;;16.11;73.39
21779;BME280;11050;52.222;20.916;2023-04-19T12:51:32;100323.97;;;15.90;75.04
21779;BME280;11050;52.222;20.916;2023-04-19T12:53:58;100323.06;;;15.61;74.52
21779;BME280;11050;52.222;20.916;2023-04-19T12:56:24;100319.81;;;15.49;75.59
21779;BME280;11050;52.222;20.916;2023-04-19T12:58:50;100316.25;;;15.33;76.50
21779;BME280;11050;52.222;20.916;2023-04-19T13:01:16;100314.34;;;15.23;77.31